sensor_id;sensor_type;location;lat;lon;timestamp;P1;durP1;ratioP1;P2;durP2;ratioP2
76758;SDS011;65701;45.588;5.186;2023-03-23T07:21:00;6.00;;;5.25;;
76758;SDS011;65701;45.588;5.186;2023-03-23T07:23:26;5.75;;;5.75;;
76758;SDS011;65701;45.588;5.186;2023-03-23T07:25:54;6.00;;;6.00;;
76758;SDS011;65701;45.588;5.186;2023-03-23T07:28:19;4.75;;;4.75;;
76758;SDS011;65701;45.588;5.186;2023-03-23T07:30:45;5.75;;;5.00;;
76758;SDS011;65701;45.588;5.186;2023-03-23T07:33:10;7.25;;;6.75;;
76758;SDS011;65701;45.588;5.186;2023-03-23T07:35:36;7.50;;;6.00;;
76758;SDS011;65701;45.588;5.186;2023-03-23T07:38:03;7.50;;;6.00;;
76758;SDS011;65701;45.588;5.186;2023-03-23T07:40:30;6.25;;;6.25;;
76758;SDS011;65701;45.588;5.186;2023-03-23T07:42:58;7.25;;;5.50;;
76758;SDS011;65701;45.588;5.186;2023-03-23T07:45:25;6.25;;;5.50;;
76758;SDS011;65701;45.588;5.186;2023-03-23T07:47:52;4.00;;;4.00;;
76758;SDS011;65701;45.588;5.186;2023-03-23T07:50:18;8.00;;;7.00;;
76758;SDS011;65701;45.588;5.186;2023-03-23T07:52:47;7.00;;;7.00;;
76758;SDS011;65701;45.588;5.186;2023-03-23T07:55:13;8.25;;;7.25;;
76758;SDS011;65701;45.588;5.186;2023-03-23T07:57:46;9.00;;;7.00;;
76758;SDS011;65701;45.588;5.186;2023-03-23T08:00:14;7.00;;;6.50;;
76758;SDS011;65701;45.588;5.186;2023-03-23T08:02:42;7.75;;;6.25;;
76758;SDS011;65701;45.588;5.186;2023-03-23T08:05:07;8.00;;;6.75;;
76758;SDS011;65701;45.588;5.186;2023-03-23T08:07:33;6.25;;;5.00;;
76758;SDS011;65701;45.588;5.186;2023-03-23T08:09:59;4.00;;;3.00;;
76758;SDS011;65701;45.588;5.186;2023-03-23T08:12:25;5.50;;;5.50;;
76758;SDS011;65701;45.588;5.186;2023-03-23T08:14:52;8.25;;;7.00;;
76758;SDS011;65701;45.588;5.186;2023-03-23T08:17:19;6.00;;;6.00;;
76758;SDS011;65701;45.588;5.186;2023-03-23T08:19:45;6.75;;;6.75;;
76758;SDS011;65701;45.588;5.186;2023-03-23T08:22:11;7.75;;;7.25;;
76758;SDS011;65701;45.588;5.186;2023-03-23T08:24:37;5.00;;;5.00;;
76758;SDS011;65701;45.588;5.186;2023-03-23T08:27:02;7.50;;;7.00;;
76758;SDS011;65701;45.588;5.186;2023-03-23T08:29:28;6.25;;;6.25;;
76758;SDS011;65701;45.588;5.186;2023-03-23T08:31:54;8.25;;;8.25;;
76758;SDS011;65701;45.588;5.186;2023-03-23T08:34:21;6.25;;;6.25;;
76758;SDS011;65701;45.588;5.186;2023-03-23T08:36:47;5.00;;;5.00;;
76758;SDS011;65701;45.588;5.186;2023-03-23T08:39:13;9.00;;;7.00;;
76758;SDS011;65701;45.588;5.186;2023-03-23T08:41:43;9.00;;;7.00;;
76758;SDS011;65701;45.588;5.186;2023-03-23T08:44:09;7.75;;;6.00;;
76758;SDS011;65701;45.588;5.186;2023-03-23T08:46:35;7.75;;;7.75;;
76758;SDS011;65701;45.588;5.186;2023-03-23T08:49:01;8.25;;;8.25;;
76758;SDS011;65701;45.588;5.186;2023-03-23T08:51:26;10.25;;;9.00;;
76758;SDS011;65701;45.588;5.186;2023-03-23T08:53:52;8.25;;;7.25;;
76758;SDS011;65701;45.588;5.186;2023-03-23T08:56:19;14.25;;;11.50;;
76758;SDS011;65701;45.588;5.186;2023-03-23T08:58:45;8.75;;;8.25;;
76758;SDS011;65701;45.588;5.186;2023-03-23T09:01:10;10.75;;;10.75;;
76758;SDS011;65701;45.588;5.186;2023-03-23T09:03:36;8.00;;;7.75;;
76758;SDS011;65701;45.588;5.186;2023-03-23T09:06:03;5.50;;;5.50;;
76758;SDS011;65701;45.588;5.186;2023-03-23T09:08:30;11.25;;;11.25;;
76758;SDS011;65701;45.588;5.186;2023-03-23T09:11:00;10.00;;;9.00;;
76758;SDS011;65701;45.588;5.186;2023-03-23T09:13:30;9.50;;;9.50;;
76758;SDS011;65701;45.588;5.186;2023-03-23T09:15:56;11.25;;;8.50;;
76758;SDS011;65701;45.588;5.186;2023-03-23T09:18:22;10.25;;;10.25;;
76758;SDS011;65701;45.588;5.186;2023-03-23T09:20:53;9.00;;;9.00;;
76758;SDS011;65701;45.588;5.186;2023-03-23T09:23:19;10.75;;;6.25;;
76758;SDS011;65701;45.588;5.186;2023-03-23T09:25:49;13.75;;;12.00;;
76758;SDS011;65701;45.588;5.186;2023-03-23T09:28:16;10.75;;;9.75;;
76758;SDS011;65701;45.588;5.186;2023-03-23T09:30:41;10.75;;;9.00;;
76758;SDS011;65701;45.588;5.186;2023-03-23T09:33:09;10.00;;;9.50;;
76758;SDS011;65701;45.588;5.186;2023-03-23T09:35:35;10.25;;;10.25;;
76758;SDS011;65701;45.588;5.186;2023-03-23T09:38:03;11.00;;;10.00;;
76758;SDS011;65701;45.588;5.186;2023-03-23T09:46:34;7.50;;;7.00;;
76758;SDS011;65701;45.588;5.186;2023-03-23T09:49:40;9.00;;;9.00;;
76758;SDS011;65701;45.588;5.186;2023-03-23T09:52:09;10.00;;;10.00;;
76758;SDS011;65701;45.588;5.186;2023-03-23T09:54:41;5.75;;;5.75;;
76758;SDS011;65701;45.588;5.186;2023-03-23T09:57:12;6.75;;;6.75;;
76758;SDS011;65701;45.588;5.186;2023-03-23T10:08:00;12.25;;;12.25;;
76758;SDS011;65701;45.588;5.186;2023-03-23T10:10:42;11.00;;;9.50;;
76758;SDS011;65701;45.588;5.186;2023-03-23T10:13:24;10.00;;;10.00;;
76758;SDS011;65701;45.588;5.186;2023-03-23T10:16:08;11.25;;;11.25;;
76758;SDS011;65701;45.588;5.186;2023-03-23T10:21:16;8.25;;;8.25;;
76758;SDS011;65701;45.588;5.186;2023-03-23T10:23:50;11.25;;;11.25;;
76758;SDS011;65701;45.588;5.186;2023-03-23T10:26:37;7.50;;;7.50;;
76758;SDS011;65701;45.588;5.186;2023-03-23T10:29:19;10.50;;;10.50;;
76758;SDS011;65701;45.588;5.186;2023-03-23T10:34:24;7.00;;;7.00;;
76758;SDS011;65701;45.588;5.186;2023-03-23T10:37:01;11.50;;;11.50;;
76758;SDS011;65701;45.588;5.186;2023-03-23T10:39:32;9.00;;;8.75;;
76758;SDS011;65701;45.588;5.186;2023-03-23T10:42:21;12.00;;;11.00;;
76758;SDS011;65701;45.588;5.186;2023-03-23T10:44:58;11.00;;;11.00;;
76758;SDS011;65701;45.588;5.186;2023-03-23T10:47:25;7.75;;;6.75;;
76758;SDS011;65701;45.588;5.186;2023-03-23T10:49:58;8.25;;;7.50;;
76758;SDS011;65701;45.588;5.186;2023-03-23T10:52:36;12.00;;;11.25;;
76758;SDS011;65701;45.588;5.186;2023-03-23T10:57:41;13.50;;;11.50;;
76758;SDS011;65701;45.588;5.186;2023-03-23T11:02:40;12.00;;;11.00;;
76758;SDS011;65701;45.588;5.186;2023-03-23T11:05:55;13.00;;;13.00;;
76758;SDS011;65701;45.588;5.186;2023-03-23T11:08:10;11.25;;;9.50;;
76758;SDS011;65701;45.588;5.186;2023-03-23T11:10:47;13.50;;;11.75;;
76758;SDS011;65701;45.588;5.186;2023-03-23T11:13:15;14.00;;;11.00;;
76758;SDS011;65701;45.588;5.186;2023-03-23T11:15:43;16.25;;;13.75;;
76758;SDS011;65701;45.588;5.186;2023-03-23T11:20:56;19.00;;;15.25;;
76758;SDS011;65701;45.588;5.186;2023-03-23T11:23:24;17.50;;;15.75;;
76758;SDS011;65701;45.588;5.186;2023-03-23T11:29:24;7.00;;;5.75;;
76758;SDS011;65701;45.588;5.186;2023-03-23T11:31:32;18.50;;;15.00;;
76758;SDS011;65701;45.588;5.186;2023-03-23T11:34:21;12.75;;;11.00;;
76758;SDS011;65701;45.588;5.186;2023-03-23T11:42:24;10.75;;;10.75;;
76758;SDS011;65701;45.588;5.186;2023-03-23T11:51:01;8.50;;;8.25;;
76758;SDS011;65701;45.588;5.186;2023-03-23T11:58:52;10.25;;;9.25;;
76758;SDS011;65701;45.588;5.186;2023-03-23T12:01:32;11.50;;;9.75;;
76758;SDS011;65701;45.588;5.186;2023-03-23T12:09:47;14.75;;;12.75;;
76758;SDS011;65701;45.588;5.186;2023-03-23T12:12:36;15.75;;;13.75;;
76758;SDS011;65701;45.588;5.186;2023-03-23T12:18:23;12.50;;;12.50;;
76758;SDS011;65701;45.588;5.186;2023-03-23T12:21:00;13.50;;;12.50;;
76758;SDS011;65701;45.588;5.186;2023-03-23T12:32:47;14.50;;;13.50;;
76758;SDS011;65701;45.588;5.186;2023-03-23T12:43:51;15.75;;;13.50;;
76758;SDS011;65701;45.588;5.186;2023-03-23T12:48:51;17.75;;;14.50;;
76758;SDS011;65701;45.588;5.186;2023-03-23T12:51:27;17.75;;;15.50;;
76758;SDS011;65701;45.588;5.186;2023-03-23T13:00:28;14.00;;;14.00;;
76758;SDS011;65701;45.588;5.186;2023-03-23T13:03:01;18.00;;;17.00;;
76758;SDS011;65701;45.588;5.186;2023-03-23T13:05:35;18.25;;;16.75;;
76758;SDS011;65701;45.588;5.186;2023-03-23T13:08:37;17.75;;;16.00;;
76758;SDS011;65701;45.588;5.186;2023-03-23T13:11:12;15.50;;;14.50;;
76758;SDS011;65701;45.588;5.186;2023-03-23T13:13:48;16.75;;;11.25;;
76758;SDS011;65701;45.588;5.186;2023-03-23T13:21:21;14.50;;;12.50;;
76758;SDS011;65701;45.588;5.186;2023-03-23T13:23:57;18.00;;;18.00;;
76758;SDS011;65701;45.588;5.186;2023-03-23T13:26:24;14.75;;;13.25;;
76758;SDS011;65701;45.588;5.186;2023-03-23T13:31:32;15.75;;;12.00;;
76758;SDS011;65701;45.588;5.186;2023-03-23T13:34:05;13.00;;;11.50;;
76758;SDS011;65701;45.588;5.186;2023-03-23T13:36:33;17.50;;;15.25;;
76758;SDS011;65701;45.588;5.186;2023-03-23T13:39:05;21.00;;;14.25;;
76758;SDS011;65701;45.588;5.186;2023-03-23T13:41:46;21.75;;;14.75;;
76758;SDS011;65701;45.588;5.186;2023-03-23T13:44:22;28.50;;;20.75;;
76758;SDS011;65701;45.588;5.186;2023-03-23T13:50:02;25.75;;;19.50;;
76758;SDS011;65701;45.588;5.186;2023-03-23T13:55:27;15.00;;;15.00;;
76758;SDS011;65701;45.588;5.186;2023-03-23T14:00:45;17.50;;;15.00;;
76758;SDS011;65701;45.588;5.186;2023-03-23T14:03:58;16.00;;;13.25;;
76758;SDS011;65701;45.588;5.186;2023-03-23T14:06:06;18.75;;;15.00;;
76758;SDS011;65701;45.588;5.186;2023-03-23T14:08:38;14.25;;;12.75;;
76758;SDS011;65701;45.588;5.186;2023-03-23T14:11:16;16.75;;;15.75;;
76758;SDS011;65701;45.588;5.186;2023-03-23T14:13:50;16.75;;;15.25;;
76758;SDS011;65701;45.588;5.186;2023-03-23T14:16:26;16.50;;;16.50;;
76758;SDS011;65701;45.588;5.186;2023-03-23T14:18:58;13.75;;;13.75;;
76758;SDS011;65701;45.588;5.186;2023-03-23T14:21:33;17.25;;;15.25;;
76758;SDS011;65701;45.588;5.186;2023-03-23T14:24:06;23.00;;;18.25;;
76758;SDS011;65701;45.588;5.186;2023-03-23T14:26:36;12.25;;;12.25;;
76758;SDS011;65701;45.588;5.186;2023-03-23T14:29:02;18.50;;;17.50;;
76758;SDS011;65701;45.588;5.186;2023-03-23T14:31:29;17.00;;;16.50;;
76758;SDS011;65701;45.588;5.186;2023-03-23T14:33:55;15.50;;;15.50;;
76758;SDS011;65701;45.588;5.186;2023-03-23T14:36:28;18.50;;;18.00;;
76758;SDS011;65701;45.588;5.186;2023-03-23T14:39:00;17.00;;;14.00;;
76758;SDS011;65701;45.588;5.186;2023-03-23T14:41:29;14.00;;;11.75;;
76758;SDS011;65701;45.588;5.186;2023-03-23T14:43:56;15.25;;;13.50;;
76758;SDS011;65701;45.588;5.186;2023-03-23T14:46:25;19.75;;;18.75;;
76758;SDS011;65701;45.588;5.186;2023-03-23T14:48:51;20.00;;;17.50;;
76758;SDS011;65701;45.588;5.186;2023-03-23T14:51:18;17.75;;;15.50;;
76758;SDS011;65701;45.588;5.186;2023-03-23T14:53:45;15.75;;;15.25;;
76758;SDS011;65701;45.588;5.186;2023-03-23T14:56:14;12.50;;;12.50;;
76758;SDS011;65701;45.588;5.186;2023-03-23T14:58:48;17.50;;;14.75;;
76758;SDS011;65701;45.588;5.186;2023-03-23T15:01:17;15.00;;;13.00;;
76758;SDS011;65701;45.588;5.186;2023-03-23T15:03:51;17.25;;;15.50;;
76758;SDS011;65701;45.588;5.186;2023-03-23T15:06:21;17.50;;;17.00;;
76758;SDS011;65701;45.588;5.186;2023-03-23T15:08:48;21.25;;;18.50;;
76758;SDS011;65701;45.588;5.186;2023-03-23T15:13:44;13.75;;;12.75;;
76758;SDS011;65701;45.588;5.186;2023-03-23T15:16:22;14.50;;;14.50;;
76758;SDS011;65701;45.588;5.186;2023-03-23T15:18:54;20.25;;;17.25;;
76758;SDS011;65701;45.588;5.186;2023-03-23T15:21:49;20.00;;;18.00;;
76758;SDS011;65701;45.588;5.186;2023-03-23T15:27:16;17.50;;;17.50;;
76758;SDS011;65701;45.588;5.186;2023-03-23T15:29:50;18.50;;;16.00;;
76758;SDS011;65701;45.588;5.186;2023-03-23T15:34:51;17.50;;;14.00;;
76758;SDS011;65701;45.588;5.186;2023-03-23T15:37:23;17.75;;;17.75;;
76758;SDS011;65701;45.588;5.186;2023-03-23T15:39:55;17.00;;;17.00;;
76758;SDS011;65701;45.588;5.186;2023-03-23T15:45:22;17.00;;;14.25;;
76758;SDS011;65701;45.588;5.186;2023-03-23T15:47:51;22.50;;;19.25;;
76758;SDS011;65701;45.588;5.186;2023-03-23T15:50:20;16.00;;;16.00;;
76758;SDS011;65701;45.588;5.186;2023-03-23T15:52:58;22.25;;;17.50;;
76758;SDS011;65701;45.588;5.186;2023-03-23T15:55:27;18.25;;;18.25;;
76758;SDS011;65701;45.588;5.186;2023-03-23T15:57:56;20.75;;;18.25;;
76758;SDS011;65701;45.588;5.186;2023-03-23T16:00:24;15.50;;;15.00;;
76758;SDS011;65701;45.588;5.186;2023-03-23T16:03:01;16.25;;;13.25;;
76758;SDS011;65701;45.588;5.186;2023-03-23T16:05:30;17.50;;;17.50;;
76758;SDS011;65701;45.588;5.186;2023-03-23T16:07:56;25.25;;;23.75;;
76758;SDS011;65701;45.588;5.186;2023-03-23T16:10:22;22.50;;;22.50;;
76758;SDS011;65701;45.588;5.186;2023-03-23T16:12:49;26.00;;;26.00;;
76758;SDS011;65701;45.588;5.186;2023-03-23T16:15:15;17.75;;;17.50;;
76758;SDS011;65701;45.588;5.186;2023-03-23T16:17:41;36.00;;;31.75;;
76758;SDS011;65701;45.588;5.186;2023-03-23T16:20:11;82.00;;;65.25;;
76758;SDS011;65701;45.588;5.186;2023-03-23T16:22:44;55.50;;;43.50;;
76758;SDS011;65701;45.588;5.186;2023-03-23T16:25:09;41.75;;;35.75;;
76758;SDS011;65701;45.588;5.186;2023-03-23T16:27:36;82.75;;;65.00;;
76758;SDS011;65701;45.588;5.186;2023-03-23T16:30:12;85.50;;;70.25;;
76758;SDS011;65701;45.588;5.186;2023-03-23T16:32:42;73.75;;;58.50;;
76758;SDS011;65701;45.588;5.186;2023-03-23T16:35:09;80.25;;;64.50;;
76758;SDS011;65701;45.588;5.186;2023-03-23T16:37:35;84.25;;;78.50;;
76758;SDS011;65701;45.588;5.186;2023-03-23T16:40:01;150.50;;;132.00;;
76758;SDS011;65701;45.588;5.186;2023-03-23T16:42:28;506.50;;;419.75;;
76758;SDS011;65701;45.588;5.186;2023-03-23T16:44:56;492.75;;;406.25;;
76758;SDS011;65701;45.588;5.186;2023-03-23T16:47:55;152.25;;;148.00;;
76758;SDS011;65701;45.588;5.186;2023-03-23T16:50:25;83.25;;;71.00;;
76758;SDS011;65701;45.588;5.186;2023-03-23T16:52:52;70.75;;;57.25;;
76758;SDS011;65701;45.588;5.186;2023-03-23T16:55:18;88.50;;;80.75;;
76758;SDS011;65701;45.588;5.186;2023-03-23T16:57:43;71.25;;;57.50;;
76758;SDS011;65701;45.588;5.186;2023-03-23T17:00:11;77.00;;;63.25;;
76758;SDS011;65701;45.588;5.186;2023-03-23T17:02:47;63.75;;;50.00;;
76758;SDS011;65701;45.588;5.186;2023-03-23T17:05:20;56.50;;;46.25;;
76758;SDS011;65701;45.588;5.186;2023-03-23T17:07:52;43.75;;;36.25;;
76758;SDS011;65701;45.588;5.186;2023-03-23T17:10:30;29.25;;;26.75;;
76758;SDS011;65701;45.588;5.186;2023-03-23T17:13:02;22.50;;;19.00;;
76758;SDS011;65701;45.588;5.186;2023-03-23T17:15:31;16.50;;;15.50;;
76758;SDS011;65701;45.588;5.186;2023-03-23T17:17:57;17.25;;;17.25;;
76758;SDS011;65701;45.588;5.186;2023-03-23T17:20:23;19.75;;;19.75;;
76758;SDS011;65701;45.588;5.186;2023-03-23T17:22:55;19.00;;;18.00;;
76758;SDS011;65701;45.588;5.186;2023-03-23T17:25:24;17.50;;;17.00;;
76758;SDS011;65701;45.588;5.186;2023-03-23T17:27:50;18.00;;;18.00;;
76758;SDS011;65701;45.588;5.186;2023-03-23T17:30:16;15.00;;;15.00;;
76758;SDS011;65701;45.588;5.186;2023-03-23T17:32:42;17.00;;;16.25;;
76758;SDS011;65701;45.588;5.186;2023-03-23T17:35:07;18.00;;;16.00;;
76758;SDS011;65701;45.588;5.186;2023-03-23T17:37:34;19.00;;;16.75;;
76758;SDS011;65701;45.588;5.186;2023-03-23T17:40:00;29.50;;;25.75;;
76758;SDS011;65701;45.588;5.186;2023-03-23T17:42:26;15.75;;;13.50;;
76758;SDS011;65701;45.588;5.186;2023-03-23T17:44:53;13.00;;;13.00;;
76758;SDS011;65701;45.588;5.186;2023-03-23T17:47:18;17.00;;;16.00;;
76758;SDS011;65701;45.588;5.186;2023-03-23T17:49:44;14.75;;;14.25;;
76758;SDS011;65701;45.588;5.186;2023-03-23T17:52:10;18.75;;;18.00;;
76758;SDS011;65701;45.588;5.186;2023-03-23T17:54:36;19.50;;;19.00;;
76758;SDS011;65701;45.588;5.186;2023-03-23T17:57:01;19.00;;;19.00;;
76758;SDS011;65701;45.588;5.186;2023-03-23T17:59:28;21.50;;;20.25;;
76758;SDS011;65701;45.588;5.186;2023-03-23T18:01:54;19.25;;;18.50;;
76758;SDS011;65701;45.588;5.186;2023-03-23T18:04:20;19.50;;;16.50;;
76758;SDS011;65701;45.588;5.186;2023-03-23T18:06:46;19.50;;;17.75;;
76758;SDS011;65701;45.588;5.186;2023-03-23T18:09:12;16.00;;;14.50;;
76758;SDS011;65701;45.588;5.186;2023-03-23T18:11:38;19.50;;;18.75;;
76758;SDS011;65701;45.588;5.186;2023-03-23T18:14:04;20.50;;;19.00;;
76758;SDS011;65701;45.588;5.186;2023-03-23T18:16:30;21.25;;;18.00;;
76758;SDS011;65701;45.588;5.186;2023-03-23T18:18:56;20.50;;;20.25;;
76758;SDS011;65701;45.588;5.186;2023-03-23T18:21:22;22.50;;;19.25;;
76758;SDS011;65701;45.588;5.186;2023-03-23T18:23:48;20.00;;;18.25;;
76758;SDS011;65701;45.588;5.186;2023-03-23T18:26:16;18.50;;;16.75;;
76758;SDS011;65701;45.588;5.186;2023-03-23T18:28:42;18.75;;;17.00;;
76758;SDS011;65701;45.588;5.186;2023-03-23T18:31:10;16.25;;;16.25;;
76758;SDS011;65701;45.588;5.186;2023-03-23T18:33:39;20.75;;;20.00;;
76758;SDS011;65701;45.588;5.186;2023-03-23T18:36:11;21.75;;;21.25;;
76758;SDS011;65701;45.588;5.186;2023-03-23T18:38:40;24.00;;;23.75;;
76758;SDS011;65701;45.588;5.186;2023-03-23T18:41:06;18.75;;;17.75;;
76758;SDS011;65701;45.588;5.186;2023-03-23T18:43:33;21.75;;;19.75;;
76758;SDS011;65701;45.588;5.186;2023-03-23T18:45:59;21.00;;;21.00;;
76758;SDS011;65701;45.588;5.186;2023-03-23T18:48:24;21.25;;;20.00;;
76758;SDS011;65701;45.588;5.186;2023-03-23T18:50:51;19.00;;;17.75;;
76758;SDS011;65701;45.588;5.186;2023-03-23T18:53:19;23.00;;;19.25;;
76758;SDS011;65701;45.588;5.186;2023-03-23T18:55:46;23.25;;;19.00;;
76758;SDS011;65701;45.588;5.186;2023-03-23T18:58:13;22.25;;;20.00;;
76758;SDS011;65701;45.588;5.186;2023-03-23T19:00:40;20.00;;;20.00;;
76758;SDS011;65701;45.588;5.186;2023-03-23T19:03:06;21.75;;;20.50;;
76758;SDS011;65701;45.588;5.186;2023-03-23T19:05:33;21.25;;;21.25;;
76758;SDS011;65701;45.588;5.186;2023-03-23T19:08:02;23.25;;;21.50;;
76758;SDS011;65701;45.588;5.186;2023-03-23T19:10:29;21.75;;;20.75;;
76758;SDS011;65701;45.588;5.186;2023-03-23T19:12:55;22.50;;;22.50;;
76758;SDS011;65701;45.588;5.186;2023-03-23T19:15:21;24.50;;;22.50;;
76758;SDS011;65701;45.588;5.186;2023-03-23T19:17:48;23.25;;;21.25;;
76758;SDS011;65701;45.588;5.186;2023-03-23T19:20:20;22.00;;;19.25;;
76758;SDS011;65701;45.588;5.186;2023-03-23T19:22:47;19.75;;;19.75;;
76758;SDS011;65701;45.588;5.186;2023-03-23T19:25:12;25.25;;;24.25;;
76758;SDS011;65701;45.588;5.186;2023-03-23T19:27:38;22.00;;;22.00;;
76758;SDS011;65701;45.588;5.186;2023-03-23T19:30:03;21.50;;;21.50;;
76758;SDS011;65701;45.588;5.186;2023-03-23T19:32:31;24.25;;;20.25;;
76758;SDS011;65701;45.588;5.186;2023-03-23T19:34:57;26.25;;;22.50;;
76758;SDS011;65701;45.588;5.186;2023-03-23T19:37:23;23.00;;;21.50;;
76758;SDS011;65701;45.588;5.186;2023-03-23T19:39:48;22.00;;;21.75;;
76758;SDS011;65701;45.588;5.186;2023-03-23T19:42:14;22.50;;;19.50;;
76758;SDS011;65701;45.588;5.186;2023-03-23T19:44:42;24.00;;;21.75;;
76758;SDS011;65701;45.588;5.186;2023-03-23T19:47:07;21.50;;;20.50;;
76758;SDS011;65701;45.588;5.186;2023-03-23T19:49:33;16.25;;;13.25;;
76758;SDS011;65701;45.588;5.186;2023-03-23T19:51:59;28.00;;;27.25;;
76758;SDS011;65701;45.588;5.186;2023-03-23T19:54:25;27.00;;;23.75;;
76758;SDS011;65701;45.588;5.186;2023-03-23T19:56:51;26.00;;;22.75;;
76758;SDS011;65701;45.588;5.186;2023-03-23T19:59:17;20.50;;;18.25;;
76758;SDS011;65701;45.588;5.186;2023-03-23T20:01:43;19.75;;;19.75;;
76758;SDS011;65701;45.588;5.186;2023-03-23T20:04:09;21.25;;;21.25;;
76758;SDS011;65701;45.588;5.186;2023-03-23T20:06:35;20.00;;;20.00;;
76758;SDS011;65701;45.588;5.186;2023-03-23T20:09:02;20.25;;;19.50;;
76758;SDS011;65701;45.588;5.186;2023-03-23T20:11:28;17.00;;;17.00;;
76758;SDS011;65701;45.588;5.186;2023-03-23T20:13:55;16.00;;;16.00;;
76758;SDS011;65701;45.588;5.186;2023-03-23T20:16:21;22.50;;;20.00;;
76758;SDS011;65701;45.588;5.186;2023-03-23T20:18:47;19.75;;;19.75;;
76758;SDS011;65701;45.588;5.186;2023-03-23T20:21:14;20.75;;;18.75;;
